sensor_id;sensor_type;location;lat;lon;timestamp;temperature;humidity
18577;DHT22;9418;52.694;13.294;2023-03-16T00:00:31;-1.30;99.90
18577;DHT22;9418;52.694;13.294;2023-03-16T00:02:57;-1.30;99.90
18577;DHT22;9418;52.694;13.294;2023-03-16T00:05:24;-1.40;99.90
18577;DHT22;9418;52.694;13.294;2023-03-16T00:07:51;-1.40;99.90
18577;DHT22;9418;52.694;13.294;2023-03-16T00:10:19;-1.40;99.90
18577;DHT22;9418;52.694;13.294;2023-03-16T00:12:51;-1.40;99.90
18577;DHT22;9418;52.694;13.294;2023-03-16T00:15:18;-1.30;99.90
18577;DHT22;9418;52.694;13.294;2023-03-16T00:17:45;-1.40;99.90
18577;DHT22;9418;52.694;13.294;2023-03-16T00:20:13;-1.30;99.90
18577;DHT22;9418;52.694;13.294;2023-03-16T00:22:40;-1.30;99.90
18577;DHT22;9418;52.694;13.294;2023-03-16T00:25:08;-1.40;99.90
18577;DHT22;9418;52.694;13.294;2023-03-16T00:27:36;-1.40;99.90
18577;DHT22;9418;52.694;13.294;2023-03-16T00:30:03;-1.50;99.90
18577;DHT22;9418;52.694;13.294;2023-03-16T00:32:32;-1.50;99.90
18577;DHT22;9418;52.694;13.294;2023-03-16T00:35:00;-1.50;99.90
18577;DHT22;9418;52.694;13.294;2023-03-16T00:37:27;-1.50;99.90
18577;DHT22;9418;52.694;13.294;2023-03-16T00:39:54;-1.60;99.90
18577;DHT22;9418;52.694;13.294;2023-03-16T00:42:22;-1.60;99.90
18577;DHT22;9418;52.694;13.294;2023-03-16T00:44:53;-1.60;99.90
18577;DHT22;9418;52.694;13.294;2023-03-16T00:47:23;-1.60;99.90
18577;DHT22;9418;52.694;13.294;2023-03-16T00:49:49;-1.60;99.90
18577;DHT22;9418;52.694;13.294;2023-03-16T00:52:16;-1.60;99.90
18577;DHT22;9418;52.694;13.294;2023-03-16T00:54:44;-1.60;99.90
18577;DHT22;9418;52.694;13.294;2023-03-16T00:57:12;-1.60;99.90
18577;DHT22;9418;52.694;13.294;2023-03-16T00:59:39;-1.60;99.90
18577;DHT22;9418;52.694;13.294;2023-03-16T01:02:08;-1.60;99.90
18577;DHT22;9418;52.694;13.294;2023-03-16T01:04:35;-1.50;99.90
18577;DHT22;9418;52.694;13.294;2023-03-16T01:07:03;-1.60;99.90
18577;DHT22;9418;52.694;13.294;2023-03-16T01:09:29;-1.60;99.90
18577;DHT22;9418;52.694;13.294;2023-03-16T01:12:01;-1.60;99.90
18577;DHT22;9418;52.694;13.294;2023-03-16T01:14:28;-1.60;99.90
18577;DHT22;9418;52.694;13.294;2023-03-16T01:16:55;-1.70;99.90
18577;DHT22;9418;52.694;13.294;2023-03-16T01:19:22;-1.70;99.90
18577;DHT22;9418;52.694;13.294;2023-03-16T01:21:49;-1.70;99.90
18577;DHT22;9418;52.694;13.294;2023-03-16T01:24:16;-1.80;99.90
18577;DHT22;9418;52.694;13.294;2023-03-16T01:26:43;-1.80;99.90
18577;DHT22;9418;52.694;13.294;2023-03-16T01:29:09;-1.80;99.90
18577;DHT22;9418;52.694;13.294;2023-03-16T01:31:37;-1.70;99.90
18577;DHT22;9418;52.694;13.294;2023-03-16T01:34:03;-1.80;99.90
18577;DHT22;9418;52.694;13.294;2023-03-16T01:36:31;-1.80;99.90
18577;DHT22;9418;52.694;13.294;2023-03-16T01:38:58;-1.70;99.90
18577;DHT22;9418;52.694;13.294;2023-03-16T01:41:25;-1.70;99.90
18577;DHT22;9418;52.694;13.294;2023-03-16T01:43:52;-1.80;99.90
18577;DHT22;9418;52.694;13.294;2023-03-16T01:46:24;-1.80;99.90
18577;DHT22;9418;52.694;13.294;2023-03-16T01:48:58;-1.80;99.90
18577;DHT22;9418;52.694;13.294;2023-03-16T01:51:32;-1.90;99.90
18577;DHT22;9418;52.694;13.294;2023-03-16T01:54:03;-1.90;99.90
18577;DHT22;9418;52.694;13.294;2023-03-16T01:56:35;-2.00;99.90
18577;DHT22;9418;52.694;13.294;2023-03-16T01:59:08;-1.90;99.90
18577;DHT22;9418;52.694;13.294;2023-03-16T02:01:36;-1.90;99.90
18577;DHT22;9418;52.694;13.294;2023-03-16T02:04:11;-1.80;99.90
18577;DHT22;9418;52.694;13.294;2023-03-16T02:06:40;-1.80;99.90
18577;DHT22;9418;52.694;13.294;2023-03-16T02:09:08;-1.90;99.90
18577;DHT22;9418;52.694;13.294;2023-03-16T02:11:35;-1.90;99.90
18577;DHT22;9418;52.694;13.294;2023-03-16T02:14:07;-1.90;99.90
18577;DHT22;9418;52.694;13.294;2023-03-16T02:16:35;-1.90;99.90
18577;DHT22;9418;52.694;13.294;2023-03-16T02:19:02;-1.90;99.90
18577;DHT22;9418;52.694;13.294;2023-03-16T02:21:40;-1.90;99.90
18577;DHT22;9418;52.694;13.294;2023-03-16T02:24:08;-2.00;99.90
18577;DHT22;9418;52.694;13.294;2023-03-16T02:26:40;-2.00;99.90
18577;DHT22;9418;52.694;13.294;2023-03-16T02:29:22;-2.00;99.90
18577;DHT22;9418;52.694;13.294;2023-03-16T02:31:53;-2.00;99.90
18577;DHT22;9418;52.694;13.294;2023-03-16T02:34:21;-2.00;99.90
18577;DHT22;9418;52.694;13.294;2023-03-16T02:36:49;-2.00;99.90
18577;DHT22;9418;52.694;13.294;2023-03-16T02:39:17;-2.10;99.90
18577;DHT22;9418;52.694;13.294;2023-03-16T02:41:44;-2.10;99.90
18577;DHT22;9418;52.694;13.294;2023-03-16T02:44:13;-2.00;99.90
18577;DHT22;9418;52.694;13.294;2023-03-16T02:46:43;-2.10;99.90
18577;DHT22;9418;52.694;13.294;2023-03-16T02:49:15;-2.10;99.90
18577;DHT22;9418;52.694;13.294;2023-03-16T02:51:45;-2.10;99.90
18577;DHT22;9418;52.694;13.294;2023-03-16T02:54:12;-2.20;99.90
18577;DHT22;9418;52.694;13.294;2023-03-16T02:56:39;-2.20;99.90
18577;DHT22;9418;52.694;13.294;2023-03-16T02:59:06;-2.20;99.90
18577;DHT22;9418;52.694;13.294;2023-03-16T03:01:33;-2.20;99.90
18577;DHT22;9418;52.694;13.294;2023-03-16T03:04:01;-2.30;99.90
18577;DHT22;9418;52.694;13.294;2023-03-16T03:06:29;-2.30;99.90
18577;DHT22;9418;52.694;13.294;2023-03-16T03:08:56;-2.30;99.90
18577;DHT22;9418;52.694;13.294;2023-03-16T03:11:23;-2.30;99.90
18577;DHT22;9418;52.694;13.294;2023-03-16T03:13:50;-2.30;99.90
18577;DHT22;9418;52.694;13.294;2023-03-16T03:16:16;-2.20;99.90
18577;DHT22;9418;52.694;13.294;2023-03-16T03:18:43;-2.30;99.90
18577;DHT22;9418;52.694;13.294;2023-03-16T03:21:09;-2.30;99.90
18577;DHT22;9418;52.694;13.294;2023-03-16T03:23:37;-2.30;99.90
18577;DHT22;9418;52.694;13.294;2023-03-16T03:26:04;-2.30;99.90
18577;DHT22;9418;52.694;13.294;2023-03-16T03:28:31;-2.40;99.90
18577;DHT22;9418;52.694;13.294;2023-03-16T03:30:59;-2.40;99.90
18577;DHT22;9418;52.694;13.294;2023-03-16T03:33:26;-2.40;99.90
18577;DHT22;9418;52.694;13.294;2023-03-16T03:35:54;-2.40;99.90
18577;DHT22;9418;52.694;13.294;2023-03-16T03:38:21;-2.40;99.90
18577;DHT22;9418;52.694;13.294;2023-03-16T03:40:50;-2.40;99.90
18577;DHT22;9418;52.694;13.294;2023-03-16T03:43:16;-2.30;99.90
18577;DHT22;9418;52.694;13.294;2023-03-16T03:45:43;-2.40;99.90
18577;DHT22;9418;52.694;13.294;2023-03-16T03:48:10;-2.40;99.90
18577;DHT22;9418;52.694;13.294;2023-03-16T03:50:37;-2.40;99.90
18577;DHT22;9418;52.694;13.294;2023-03-16T03:53:05;-2.40;99.90
18577;DHT22;9418;52.694;13.294;2023-03-16T03:55:32;-2.40;99.90
18577;DHT22;9418;52.694;13.294;2023-03-16T03:58:00;-2.50;99.90
18577;DHT22;9418;52.694;13.294;2023-03-16T04:00:26;-2.40;99.90
18577;DHT22;9418;52.694;13.294;2023-03-16T04:02:53;-2.40;99.90
18577;DHT22;9418;52.694;13.294;2023-03-16T04:05:19;-2.40;99.90
18577;DHT22;9418;52.694;13.294;2023-03-16T04:07:46;-2.40;99.90
18577;DHT22;9418;52.694;13.294;2023-03-16T04:10:15;-2.40;99.90
18577;DHT22;9418;52.694;13.294;2023-03-16T04:12:41;-2.50;99.90
18577;DHT22;9418;52.694;13.294;2023-03-16T04:15:10;-2.60;99.90
18577;DHT22;9418;52.694;13.294;2023-03-16T04:17:37;-2.60;99.90
18577;DHT22;9418;52.694;13.294;2023-03-16T04:20:05;-2.60;99.90
18577;DHT22;9418;52.694;13.294;2023-03-16T04:22:35;-2.60;99.90
18577;DHT22;9418;52.694;13.294;2023-03-16T04:25:02;-2.60;99.90
18577;DHT22;9418;52.694;13.294;2023-03-16T04:27:29;-2.60;99.90
18577;DHT22;9418;52.694;13.294;2023-03-16T04:30:00;-2.60;99.90
18577;DHT22;9418;52.694;13.294;2023-03-16T04:32:28;-2.60;99.90
18577;DHT22;9418;52.694;13.294;2023-03-16T04:34:56;-2.60;99.90
18577;DHT22;9418;52.694;13.294;2023-03-16T04:37:24;-2.60;99.90
18577;DHT22;9418;52.694;13.294;2023-03-16T04:39:50;-2.50;99.90
18577;DHT22;9418;52.694;13.294;2023-03-16T04:42:17;-2.60;99.90
18577;DHT22;9418;52.694;13.294;2023-03-16T04:44:43;-2.60;99.90
18577;DHT22;9418;52.694;13.294;2023-03-16T04:47:11;-2.70;99.90
18577;DHT22;9418;52.694;13.294;2023-03-16T04:49:39;-2.70;99.90
18577;DHT22;9418;52.694;13.294;2023-03-16T04:52:06;-2.70;99.90
18577;DHT22;9418;52.694;13.294;2023-03-16T04:54:33;-2.70;99.90
18577;DHT22;9418;52.694;13.294;2023-03-16T04:56:59;-2.80;99.90
18577;DHT22;9418;52.694;13.294;2023-03-16T04:59:28;-2.80;99.90
18577;DHT22;9418;52.694;13.294;2023-03-16T05:01:55;-2.80;99.90
18577;DHT22;9418;52.694;13.294;2023-03-16T05:04:21;-2.80;99.90
18577;DHT22;9418;52.694;13.294;2023-03-16T05:06:50;-2.80;99.90
18577;DHT22;9418;52.694;13.294;2023-03-16T05:09:16;-2.80;99.90
18577;DHT22;9418;52.694;13.294;2023-03-16T05:11:45;-2.80;99.90
18577;DHT22;9418;52.694;13.294;2023-03-16T05:14:11;-2.80;99.90
18577;DHT22;9418;52.694;13.294;2023-03-16T05:16:38;-2.70;99.90
18577;DHT22;9418;52.694;13.294;2023-03-16T05:19:04;-2.70;99.90
18577;DHT22;9418;52.694;13.294;2023-03-16T05:21:31;-2.70;99.90
18577;DHT22;9418;52.694;13.294;2023-03-16T05:24:00;-2.70;99.90
18577;DHT22;9418;52.694;13.294;2023-03-16T05:26:26;-2.80;99.90
18577;DHT22;9418;52.694;13.294;2023-03-16T05:28:53;-2.70;99.90
18577;DHT22;9418;52.694;13.294;2023-03-16T05:31:19;-2.80;99.90
18577;DHT22;9418;52.694;13.294;2023-03-16T05:33:47;-2.80;99.90
18577;DHT22;9418;52.694;13.294;2023-03-16T05:36:14;-2.80;99.90
18577;DHT22;9418;52.694;13.294;2023-03-16T05:38:41;-2.80;99.90
18577;DHT22;9418;52.694;13.294;2023-03-16T05:41:09;-2.80;99.90
18577;DHT22;9418;52.694;13.294;2023-03-16T05:43:36;-2.80;99.90
18577;DHT22;9418;52.694;13.294;2023-03-16T05:46:03;-2.80;99.90
18577;DHT22;9418;52.694;13.294;2023-03-16T05:48:29;-2.80;99.90
18577;DHT22;9418;52.694;13.294;2023-03-16T05:50:56;-2.70;99.90
18577;DHT22;9418;52.694;13.294;2023-03-16T05:53:22;-2.70;99.90
18577;DHT22;9418;52.694;13.294;2023-03-16T05:55:53;-2.70;99.90
18577;DHT22;9418;52.694;13.294;2023-03-16T05:58:21;-2.70;99.90
18577;DHT22;9418;52.694;13.294;2023-03-16T06:00:47;-2.60;99.90
18577;DHT22;9418;52.694;13.294;2023-03-16T06:03:14;-2.60;99.90
18577;DHT22;9418;52.694;13.294;2023-03-16T06:05:41;-2.40;99.90
18577;DHT22;9418;52.694;13.294;2023-03-16T06:08:08;-2.30;99.90
18577;DHT22;9418;52.694;13.294;2023-03-16T06:10:35;-2.20;99.90
18577;DHT22;9418;52.694;13.294;2023-03-16T06:13:01;-2.10;99.90
18577;DHT22;9418;52.694;13.294;2023-03-16T06:15:29;-2.20;99.90
18577;DHT22;9418;52.694;13.294;2023-03-16T06:17:56;-2.20;99.90
18577;DHT22;9418;52.694;13.294;2023-03-16T06:20:22;-2.10;99.90
18577;DHT22;9418;52.694;13.294;2023-03-16T06:22:49;-1.90;99.90
18577;DHT22;9418;52.694;13.294;2023-03-16T06:25:16;-1.80;99.90
18577;DHT22;9418;52.694;13.294;2023-03-16T06:27:43;-1.70;99.90
18577;DHT22;9418;52.694;13.294;2023-03-16T06:30:12;-1.70;99.90
18577;DHT22;9418;52.694;13.294;2023-03-16T06:32:40;-1.60;99.90
18577;DHT22;9418;52.694;13.294;2023-03-16T06:35:08;-1.50;99.90
18577;DHT22;9418;52.694;13.294;2023-03-16T06:37:35;-1.30;99.90
18577;DHT22;9418;52.694;13.294;2023-03-16T06:40:03;-1.00;99.90
18577;DHT22;9418;52.694;13.294;2023-03-16T06:42:30;-0.80;99.90
18577;DHT22;9418;52.694;13.294;2023-03-16T06:44:56;-0.70;99.90
18577;DHT22;9418;52.694;13.294;2023-03-16T06:47:23;-0.60;99.90
18577;DHT22;9418;52.694;13.294;2023-03-16T06:49:51;-0.70;99.90
18577;DHT22;9418;52.694;13.294;2023-03-16T06:52:19;-0.60;99.90
18577;DHT22;9418;52.694;13.294;2023-03-16T06:54:46;-0.50;99.90
18577;DHT22;9418;52.694;13.294;2023-03-16T06:57:12;-0.40;99.90
18577;DHT22;9418;52.694;13.294;2023-03-16T06:59:39;-0.20;99.90
18577;DHT22;9418;52.694;13.294;2023-03-16T07:02:06;0.10;99.90
18577;DHT22;9418;52.694;13.294;2023-03-16T07:04:32;0.40;99.90
18577;DHT22;9418;52.694;13.294;2023-03-16T07:07:00;0.50;99.90
18577;DHT22;9418;52.694;13.294;2023-03-16T07:09:28;0.60;99.90
18577;DHT22;9418;52.694;13.294;2023-03-16T07:11:55;0.70;99.90
18577;DHT22;9418;52.694;13.294;2023-03-16T07:14:21;0.80;99.90
18577;DHT22;9418;52.694;13.294;2023-03-16T07:16:50;1.00;99.90
18577;DHT22;9418;52.694;13.294;2023-03-16T07:19:17;1.10;99.90
18577;DHT22;9418;52.694;13.294;2023-03-16T07:21:44;1.30;99.90
18577;DHT22;9418;52.694;13.294;2023-03-16T07:24:12;1.40;73.50
18577;DHT22;9418;52.694;13.294;2023-03-16T07:26:38;1.60;31.90
18577;DHT22;9418;52.694;13.294;2023-03-16T07:29:05;1.80;46.30
18577;DHT22;9418;52.694;13.294;2023-03-16T07:31:32;2.00;50.60
18577;DHT22;9418;52.694;13.294;2023-03-16T07:33:59;2.30;63.80
18577;DHT22;9418;52.694;13.294;2023-03-16T07:36:26;2.50;99.90
18577;DHT22;9418;52.694;13.294;2023-03-16T07:38:53;2.80;99.90
18577;DHT22;9418;52.694;13.294;2023-03-16T07:41:21;3.20;99.90
18577;DHT22;9418;52.694;13.294;2023-03-16T07:43:49;3.40;99.90
18577;DHT22;9418;52.694;13.294;2023-03-16T07:46:15;3.70;99.90
18577;DHT22;9418;52.694;13.294;2023-03-16T07:48:43;3.80;86.60
18577;DHT22;9418;52.694;13.294;2023-03-16T07:51:12;3.90;99.90
18577;DHT22;9418;52.694;13.294;2023-03-16T07:53:39;4.00;99.90
18577;DHT22;9418;52.694;13.294;2023-03-16T07:56:07;4.20;25.60
18577;DHT22;9418;52.694;13.294;2023-03-16T07:58:35;4.60;30.20
18577;DHT22;9418;52.694;13.294;2023-03-16T08:01:02;4.70;71.00
18577;DHT22;9418;52.694;13.294;2023-03-16T08:03:29;4.90;72.10
18577;DHT22;9418;52.694;13.294;2023-03-16T08:05:56;5.00;98.30
18577;DHT22;9418;52.694;13.294;2023-03-16T08:08:23;5.20;99.90
18577;DHT22;9418;52.694;13.294;2023-03-16T08:10:50;5.30;95.70
18577;DHT22;9418;52.694;13.294;2023-03-16T08:13:18;5.50;99.90
18577;DHT22;9418;52.694;13.294;2023-03-16T08:15:46;5.80;99.90
18577;DHT22;9418;52.694;13.294;2023-03-16T08:18:13;5.90;99.90
18577;DHT22;9418;52.694;13.294;2023-03-16T08:20:40;6.00;99.90
18577;DHT22;9418;52.694;13.294;2023-03-16T08:23:08;6.00;99.90
18577;DHT22;9418;52.694;13.294;2023-03-16T08:25:36;6.20;99.90
18577;DHT22;9418;52.694;13.294;2023-03-16T08:28:03;6.70;99.90
18577;DHT22;9418;52.694;13.294;2023-03-16T08:30:30;6.50;99.90
18577;DHT22;9418;52.694;13.294;2023-03-16T08:32:58;6.90;99.90
18577;DHT22;9418;52.694;13.294;2023-03-16T08:35:25;7.00;99.90
18577;DHT22;9418;52.694;13.294;2023-03-16T08:37:53;7.20;99.90
18577;DHT22;9418;52.694;13.294;2023-03-16T08:40:21;7.10;99.90
18577;DHT22;9418;52.694;13.294;2023-03-16T08:42:49;7.10;99.90
18577;DHT22;9418;52.694;13.294;2023-03-16T08:45:17;7.60;99.90
18577;DHT22;9418;52.694;13.294;2023-03-16T08:47:44;8.00;99.90
18577;DHT22;9418;52.694;13.294;2023-03-16T08:50:12;8.20;99.90
18577;DHT22;9418;52.694;13.294;2023-03-16T08:52:40;8.10;99.90
18577;DHT22;9418;52.694;13.294;2023-03-16T08:55:08;8.10;99.90
18577;DHT22;9418;52.694;13.294;2023-03-16T08:57:35;8.30;99.90
18577;DHT22;9418;52.694;13.294;2023-03-16T09:00:04;8.00;99.90
18577;DHT22;9418;52.694;13.294;2023-03-16T09:02:37;8.30;99.90
18577;DHT22;9418;52.694;13.294;2023-03-16T09:05:06;8.90;99.90
18577;DHT22;9418;52.694;13.294;2023-03-16T09:07:34;8.70;99.90
18577;DHT22;9418;52.694;13.294;2023-03-16T09:10:01;9.50;99.90
18577;DHT22;9418;52.694;13.294;2023-03-16T09:12:29;9.80;99.90
18577;DHT22;9418;52.694;13.294;2023-03-16T09:14:56;10.30;99.90
18577;DHT22;9418;52.694;13.294;2023-03-16T09:17:23;11.00;99.90
18577;DHT22;9418;52.694;13.294;2023-03-16T09:19:49;11.70;99.90
18577;DHT22;9418;52.694;13.294;2023-03-16T09:22:16;11.00;99.90
18577;DHT22;9418;52.694;13.294;2023-03-16T09:24:45;11.90;99.90
18577;DHT22;9418;52.694;13.294;2023-03-16T09:27:13;11.70;99.90
18577;DHT22;9418;52.694;13.294;2023-03-16T09:29:41;11.80;99.90
18577;DHT22;9418;52.694;13.294;2023-03-16T09:32:08;11.40;99.90
18577;DHT22;9418;52.694;13.294;2023-03-16T09:34:35;11.30;99.90
18577;DHT22;9418;52.694;13.294;2023-03-16T09:37:02;11.40;99.90
18577;DHT22;9418;52.694;13.294;2023-03-16T09:39:29;11.20;99.90
18577;DHT22;9418;52.694;13.294;2023-03-16T09:42:02;11.10;99.90
18577;DHT22;9418;52.694;13.294;2023-03-16T09:44:36;11.30;99.90
18577;DHT22;9418;52.694;13.294;2023-03-16T09:47:06;12.10;99.90
18577;DHT22;9418;52.694;13.294;2023-03-16T09:49:38;11.90;99.90
18577;DHT22;9418;52.694;13.294;2023-03-16T09:52:15;12.10;99.90
18577;DHT22;9418;52.694;13.294;2023-03-16T09:54:48;12.70;99.90
18577;DHT22;9418;52.694;13.294;2023-03-16T09:57:23;12.70;99.90
18577;DHT22;9418;52.694;13.294;2023-03-16T09:59:50;12.90;99.90
18577;DHT22;9418;52.694;13.294;2023-03-16T10:02:36;12.20;99.90
18577;DHT22;9418;52.694;13.294;2023-03-16T10:05:07;11.50;99.90
18577;DHT22;9418;52.694;13.294;2023-03-16T10:07:42;11.30;99.90
18577;DHT22;9418;52.694;13.294;2023-03-16T10:10:20;12.20;99.90
18577;DHT22;9418;52.694;13.294;2023-03-16T10:12:53;13.10;99.90
18577;DHT22;9418;52.694;13.294;2023-03-16T10:15:25;12.80;99.90
18577;DHT22;9418;52.694;13.294;2023-03-16T10:17:56;12.00;99.90
18577;DHT22;9418;52.694;13.294;2023-03-16T10:20:26;13.30;99.90
18577;DHT22;9418;52.694;13.294;2023-03-16T10:22:57;12.40;99.90
18577;DHT22;9418;52.694;13.294;2023-03-16T10:25:30;13.10;99.90
18577;DHT22;9418;52.694;13.294;2023-03-16T10:28:00;13.70;99.90
18577;DHT22;9418;52.694;13.294;2023-03-16T10:30:29;13.90;20.40
18577;DHT22;9418;52.694;13.294;2023-03-16T10:33:00;13.30;76.00
18577;DHT22;9418;52.694;13.294;2023-03-16T10:35:37;12.60;98.40
18577;DHT22;9418;52.694;13.294;2023-03-16T10:38:07;11.70;99.90
18577;DHT22;9418;52.694;13.294;2023-03-16T10:40:36;11.60;99.90
18577;DHT22;9418;52.694;13.294;2023-03-16T10:43:06;11.60;99.90
18577;DHT22;9418;52.694;13.294;2023-03-16T10:45:34;11.40;99.90
18577;DHT22;9418;52.694;13.294;2023-03-16T10:48:06;12.70;99.90
18577;DHT22;9418;52.694;13.294;2023-03-16T10:50:33;13.50;99.90
18577;DHT22;9418;52.694;13.294;2023-03-16T10:53:02;12.10;99.90
18577;DHT22;9418;52.694;13.294;2023-03-16T10:55:39;12.50;99.80
18577;DHT22;9418;52.694;13.294;2023-03-16T10:58:08;12.30;87.20
18577;DHT22;9418;52.694;13.294;2023-03-16T11:00:36;11.90;99.90
18577;DHT22;9418;52.694;13.294;2023-03-16T11:03:18;11.40;74.60
18577;DHT22;9418;52.694;13.294;2023-03-16T11:05:54;11.30;89.50
18577;DHT22;9418;52.694;13.294;2023-03-16T11:08:24;10.70;99.90
18577;DHT22;9418;52.694;13.294;2023-03-16T11:10:55;10.50;99.90
18577;DHT22;9418;52.694;13.294;2023-03-16T11:13:30;10.80;99.90
18577;DHT22;9418;52.694;13.294;2023-03-16T11:16:01;10.40;99.90
18577;DHT22;9418;52.694;13.294;2023-03-16T11:18:34;10.60;99.90
18577;DHT22;9418;52.694;13.294;2023-03-16T11:21:07;10.80;99.90
18577;DHT22;9418;52.694;13.294;2023-03-16T11:23:39;11.00;99.90
18577;DHT22;9418;52.694;13.294;2023-03-16T11:26:14;11.00;99.90
18577;DHT22;9418;52.694;13.294;2023-03-16T11:28:47;10.70;99.90
18577;DHT22;9418;52.694;13.294;2023-03-16T11:31:19;10.10;99.90
18577;DHT22;9418;52.694;13.294;2023-03-16T11:33:49;10.70;99.90
18577;DHT22;9418;52.694;13.294;2023-03-16T11:36:34;10.90;99.90
18577;DHT22;9418;52.694;13.294;2023-03-16T11:39:10;10.40;99.90
18577;DHT22;9418;52.694;13.294;2023-03-16T11:41:47;10.10;99.90
18577;DHT22;9418;52.694;13.294;2023-03-16T11:44:25;10.50;99.90
18577;DHT22;9418;52.694;13.294;2023-03-16T11:47:00;10.90;99.90
18577;DHT22;9418;52.694;13.294;2023-03-16T11:49:43;10.40;99.90
18577;DHT22;9418;52.694;13.294;2023-03-16T11:52:17;10.10;99.90
18577;DHT22;9418;52.694;13.294;2023-03-16T11:54:55;10.10;99.90
18577;DHT22;9418;52.694;13.294;2023-03-16T11:57:31;10.10;99.90
18577;DHT22;9418;52.694;13.294;2023-03-16T12:00:12;10.10;99.90
18577;DHT22;9418;52.694;13.294;2023-03-16T12:02:56;10.20;99.90
18577;DHT22;9418;52.694;13.294;2023-03-16T12:05:36;10.00;78.10
18577;DHT22;9418;52.694;13.294;2023-03-16T12:08:16;10.40;99.90
18577;DHT22;9418;52.694;13.294;2023-03-16T12:10:52;10.50;73.40
18577;DHT22;9418;52.694;13.294;2023-03-16T12:13:33;10.30;96.40
18577;DHT22;9418;52.694;13.294;2023-03-16T12:16:05;10.10;80.70
18577;DHT22;9418;52.694;13.294;2023-03-16T12:18:40;10.20;71.90
18577;DHT22;9418;52.694;13.294;2023-03-16T12:21:12;10.10;22.20
18577;DHT22;9418;52.694;13.294;2023-03-16T12:23:42;9.90;78.10
18577;DHT22;9418;52.694;13.294;2023-03-16T12:26:15;10.10;99.90
18577;DHT22;9418;52.694;13.294;2023-03-16T12:28:43;10.50;99.90
18577;DHT22;9418;52.694;13.294;2023-03-16T12:31:14;10.50;93.50
18577;DHT22;9418;52.694;13.294;2023-03-16T12:33:52;10.10;99.90
18577;DHT22;9418;52.694;13.294;2023-03-16T12:36:50;10.80;92.80
18577;DHT22;9418;52.694;13.294;2023-03-16T12:39:31;10.90;93.30
18577;DHT22;9418;52.694;13.294;2023-03-16T12:42:09;10.80;79.50
18577;DHT22;9418;52.694;13.294;2023-03-16T12:44:46;11.80;80.00
18577;DHT22;9418;52.694;13.294;2023-03-16T12:47:18;12.40;24.50
18577;DHT22;9418;52.694;13.294;2023-03-16T12:49:48;11.80;24.30
18577;DHT22;9418;52.694;13.294;2023-03-16T12:52:16;11.30;25.80
18577;DHT22;9418;52.694;13.294;2023-03-16T12:54:50;11.30;26.00
18577;DHT22;9418;52.694;13.294;2023-03-16T12:57:18;11.20;27.20
18577;DHT22;9418;52.694;13.294;2023-03-16T12:59:47;11.70;25.70
18577;DHT22;9418;52.694;13.294;2023-03-16T13:02:19;12.00;26.60
18577;DHT22;9418;52.694;13.294;2023-03-16T13:04:55;12.20;29.80
18577;DHT22;9418;52.694;13.294;2023-03-16T13:07:25;12.90;27.30
18577;DHT22;9418;52.694;13.294;2023-03-16T13:09:55;12.90;27.30
18577;DHT22;9418;52.694;13.294;2023-03-16T13:12:26;12.90;28.30
18577;DHT22;9418;52.694;13.294;2023-03-16T13:14:53;13.60;24.30
18577;DHT22;9418;52.694;13.294;2023-03-16T13:17:27;13.40;27.20
18577;DHT22;9418;52.694;13.294;2023-03-16T13:22:43;13.60;26.20
18577;DHT22;9418;52.694;13.294;2023-03-16T13:25:14;13.90;26.30
18577;DHT22;9418;52.694;13.294;2023-03-16T13:27:44;13.30;25.00
18577;DHT22;9418;52.694;13.294;2023-03-16T13:30:20;12.70;22.40
18577;DHT22;9418;52.694;13.294;2023-03-16T13:32:52;12.10;21.30
18577;DHT22;9418;52.694;13.294;2023-03-16T13:35:20;13.10;28.80
18577;DHT22;9418;52.694;13.294;2023-03-16T13:37:48;13.30;27.30
18577;DHT22;9418;52.694;13.294;2023-03-16T13:40:17;13.90;33.00
18577;DHT22;9418;52.694;13.294;2023-03-16T13:42:46;14.10;34.00
18577;DHT22;9418;52.694;13.294;2023-03-16T13:45:17;13.90;34.40
18577;DHT22;9418;52.694;13.294;2023-03-16T13:47:48;13.90;34.00
18577;DHT22;9418;52.694;13.294;2023-03-16T13:50:16;13.50;35.40
18577;DHT22;9418;52.694;13.294;2023-03-16T13:52:52;13.40;35.30
18577;DHT22;9418;52.694;13.294;2023-03-16T13:55:25;13.80;35.70
18577;DHT22;9418;52.694;13.294;2023-03-16T13:57:52;12.90;37.40
18577;DHT22;9418;52.694;13.294;2023-03-16T14:00:23;12.80;37.70
18577;DHT22;9418;52.694;13.294;2023-03-16T14:02:53;13.10;34.20
18577;DHT22;9418;52.694;13.294;2023-03-16T14:05:27;13.30;33.70
18577;DHT22;9418;52.694;13.294;2023-03-16T14:07:55;13.40;34.40
18577;DHT22;9418;52.694;13.294;2023-03-16T14:10:26;12.70;28.50
18577;DHT22;9418;52.694;13.294;2023-03-16T14:12:55;12.30;24.90
18577;DHT22;9418;52.694;13.294;2023-03-16T14:15:25;13.10;26.40
18577;DHT22;9418;52.694;13.294;2023-03-16T14:18:07;13.50;28.70
18577;DHT22;9418;52.694;13.294;2023-03-16T14:20:36;13.20;29.50
18577;DHT22;9418;52.694;13.294;2023-03-16T14:23:02;12.70;35.80
18577;DHT22;9418;52.694;13.294;2023-03-16T14:25:29;12.10;36.90
18577;DHT22;9418;52.694;13.294;2023-03-16T14:27:58;11.90;35.00
18577;DHT22;9418;52.694;13.294;2023-03-16T14:30:26;11.60;33.10
18577;DHT22;9418;52.694;13.294;2023-03-16T14:32:56;11.40;32.10
18577;DHT22;9418;52.694;13.294;2023-03-16T14:35:27;11.50;34.20
18577;DHT22;9418;52.694;13.294;2023-03-16T14:37:53;11.60;40.40
18577;DHT22;9418;52.694;13.294;2023-03-16T14:40:24;12.00;41.60
18577;DHT22;9418;52.694;13.294;2023-03-16T14:42:52;12.30;42.00
18577;DHT22;9418;52.694;13.294;2023-03-16T14:45:20;12.40;39.30
18577;DHT22;9418;52.694;13.294;2023-03-16T14:47:49;12.60;37.70
18577;DHT22;9418;52.694;13.294;2023-03-16T14:50:22;12.40;33.50
18577;DHT22;9418;52.694;13.294;2023-03-16T14:52:49;12.50;37.50
18577;DHT22;9418;52.694;13.294;2023-03-16T14:55:18;12.10;37.80
18577;DHT22;9418;52.694;13.294;2023-03-16T14:57:45;12.10;37.10
18577;DHT22;9418;52.694;13.294;2023-03-16T15:00:15;12.40;38.30
18577;DHT22;9418;52.694;13.294;2023-03-16T15:02:44;12.40;37.90
18577;DHT22;9418;52.694;13.294;2023-03-16T15:05:20;12.60;38.30
18577;DHT22;9418;52.694;13.294;2023-03-16T15:07:51;12.80;35.70
18577;DHT22;9418;52.694;13.294;2023-03-16T15:10:21;12.50;35.80
18577;DHT22;9418;52.694;13.294;2023-03-16T15:12:48;12.90;34.90
18577;DHT22;9418;52.694;13.294;2023-03-16T15:15:20;13.00;36.00
18577;DHT22;9418;52.694;13.294;2023-03-16T15:17:48;13.00;35.30
18577;DHT22;9418;52.694;13.294;2023-03-16T15:20:17;12.80;35.10
18577;DHT22;9418;52.694;13.294;2023-03-16T15:22:47;12.80;35.60
18577;DHT22;9418;52.694;13.294;2023-03-16T15:25:22;12.80;32.10
18577;DHT22;9418;52.694;13.294;2023-03-16T15:27:50;11.90;35.60
18577;DHT22;9418;52.694;13.294;2023-03-16T15:30:20;12.80;37.10
18577;DHT22;9418;52.694;13.294;2023-03-16T15:32:47;12.30;39.30
18577;DHT22;9418;52.694;13.294;2023-03-16T15:35:14;12.10;38.40
18577;DHT22;9418;52.694;13.294;2023-03-16T15:37:41;11.40;35.00
18577;DHT22;9418;52.694;13.294;2023-03-16T15:40:15;11.20;34.60
18577;DHT22;9418;52.694;13.294;2023-03-16T15:42:42;10.90;33.30
18577;DHT22;9418;52.694;13.294;2023-03-16T15:45:11;10.70;33.90
18577;DHT22;9418;52.694;13.294;2023-03-16T15:47:38;10.40;33.20